createdAt,value
2018-07-17T00:00:07.816Z,0.00
2018-07-17T00:01:07.814Z,0.00
2018-07-17T00:02:07.821Z,0.00
2018-07-17T00:03:07.820Z,0.00
2018-07-17T00:04:07.814Z,0.00
2018-07-17T00:05:07.814Z,0.00
2018-07-17T00:06:07.822Z,0.00
2018-07-17T00:07:07.818Z,0.00
2018-07-17T00:08:07.819Z,0.00
2018-07-17T00:09:07.817Z,0.00
2018-07-17T00:10:07.813Z,0.00
2018-07-17T00:11:07.812Z,0.00
2018-07-17T00:12:07.812Z,0.00
2018-07-17T00:13:07.813Z,0.00
2018-07-17T00:14:07.816Z,0.00
2018-07-17T00:15:07.816Z,0.00
2018-07-17T00:16:07.819Z,0.00
2018-07-17T00:17:07.816Z,0.00
2018-07-17T00:18:07.811Z,0.00
2018-07-17T00:19:07.815Z,0.00
2018-07-17T00:20:07.817Z,0.00
2018-07-17T00:21:07.815Z,0.00
2018-07-17T00:22:07.810Z,0.00
2018-07-17T00:23:07.809Z,0.00
2018-07-17T00:24:07.809Z,0.00
2018-07-17T00:25:07.811Z,0.00
2018-07-17T00:26:07.816Z,0.00
2018-07-17T00:27:07.812Z,0.00
2018-07-17T00:28:07.812Z,0.00
2018-07-17T00:29:07.811Z,0.00
2018-07-17T00:30:07.806Z,0.00
2018-07-17T00:31:07.806Z,0.00
2018-07-17T00:32:07.813Z,0.00
2018-07-17T00:33:07.805Z,0.00
2018-07-17T00:34:07.809Z,0.00
2018-07-17T00:35:07.810Z,0.00
2018-07-17T00:36:07.804Z,0.00
2018-07-17T00:37:07.803Z,0.00
2018-07-17T00:38:07.808Z,0.00
2018-07-17T00:39:07.807Z,0.00
2018-07-17T00:40:07.807Z,0.00
2018-07-17T00:41:07.807Z,0.00
2018-07-17T00:42:07.801Z,0.00
2018-07-17T00:43:07.801Z,0.00
2018-07-17T00:44:07.801Z,0.00
2018-07-17T00:45:07.799Z,0.00
2018-07-17T00:46:07.804Z,0.00
2018-07-17T00:47:07.804Z,0.00
2018-07-17T00:48:07.803Z,0.00
2018-07-17T00:49:07.802Z,0.00
2018-07-17T00:50:07.798Z,0.00
2018-07-17T00:51:07.798Z,0.00
2018-07-17T00:52:07.802Z,0.00
2018-07-17T00:53:07.800Z,0.00
2018-07-17T00:54:07.796Z,0.00
2018-07-17T00:55:07.795Z,0.00
2018-07-17T00:56:07.795Z,0.00
2018-07-17T00:57:07.795Z,0.00
2018-07-17T00:58:07.799Z,0.00
2018-07-17T00:59:07.811Z,0.00
2018-07-17T01:00:07.799Z,0.00
2018-07-17T01:01:07.869Z,0.00
2018-07-17T01:02:07.793Z,0.00
2018-07-17T01:03:07.792Z,0.00
2018-07-17T01:04:07.791Z,0.00
2018-07-17T01:05:07.790Z,0.00
2018-07-17T01:06:07.795Z,0.00
2018-07-17T01:07:07.794Z,0.00
2018-07-17T01:08:07.791Z,0.00
2018-07-17T01:09:07.788Z,0.00
2018-07-17T01:10:07.793Z,0.00
2018-07-17T01:11:07.795Z,0.00
2018-07-17T01:12:07.794Z,0.00
2018-07-17T01:13:07.793Z,0.00
2018-07-17T01:14:07.788Z,0.00
2018-07-17T01:15:07.787Z,0.00
2018-07-17T01:16:07.786Z,0.00
2018-07-17T01:17:07.786Z,0.00
2018-07-17T01:18:07.790Z,0.00
2018-07-17T01:19:07.791Z,0.00
2018-07-17T01:20:07.788Z,0.00
2018-07-17T01:21:07.787Z,0.00
2018-07-17T01:22:07.783Z,0.00
2018-07-17T01:23:07.782Z,0.00
2018-07-17T01:24:07.786Z,0.00
2018-07-17T01:25:07.784Z,0.00
2018-07-17T01:26:07.780Z,0.00
2018-07-17T01:27:07.780Z,0.00
2018-07-17T01:28:07.779Z,0.00
2018-07-17T01:29:07.779Z,0.00
2018-07-17T01:30:07.783Z,0.00
2018-07-17T01:31:07.785Z,0.00
2018-07-17T01:32:07.783Z,0.00
2018-07-17T01:33:07.781Z,0.00
2018-07-17T01:34:07.777Z,0.00
2018-07-17T01:35:07.776Z,0.00
2018-07-17T01:36:07.776Z,0.00
2018-07-17T01:37:07.773Z,0.00
2018-07-17T01:38:07.779Z,0.00
2018-07-17T01:39:07.778Z,0.00
2018-07-17T01:40:07.772Z,0.00
2018-07-17T01:41:07.770Z,0.00
2018-07-17T01:42:07.775Z,0.00
2018-07-17T01:43:07.829Z,0.00
2018-07-17T01:44:07.773Z,0.00
2018-07-17T01:45:07.777Z,0.00
2018-07-17T01:46:07.767Z,0.00
2018-07-17T01:47:07.766Z,0.00
2018-07-17T01:48:07.766Z,0.00
2018-07-17T01:49:07.765Z,0.00
2018-07-17T01:50:07.768Z,0.00
2018-07-17T01:51:07.768Z,0.00
2018-07-17T01:52:07.769Z,0.00
2018-07-17T01:53:07.768Z,0.00
2018-07-17T01:54:07.762Z,0.00
2018-07-17T01:55:07.761Z,0.00
2018-07-17T01:56:07.767Z,0.00
2018-07-17T01:57:07.764Z,0.00
2018-07-17T01:58:07.760Z,0.00
2018-07-17T01:59:07.759Z,0.00
2018-07-17T02:00:07.759Z,0.00
2018-07-17T02:01:07.763Z,0.00
2018-07-17T02:02:07.760Z,0.00
2018-07-17T02:03:07.760Z,0.00
2018-07-17T02:04:07.763Z,0.00
2018-07-17T02:05:07.759Z,0.00
2018-07-17T02:06:07.755Z,0.00
2018-07-17T02:07:07.754Z,0.00
2018-07-17T02:08:07.754Z,0.00
2018-07-17T02:09:07.755Z,0.00
2018-07-17T02:10:07.757Z,0.00
2018-07-17T02:11:07.758Z,0.00
2018-07-17T02:12:07.752Z,0.00
2018-07-17T02:13:07.751Z,0.00
2018-07-17T02:14:07.755Z,0.00
2018-07-17T02:15:07.756Z,0.00
2018-07-17T02:16:07.754Z,0.00
2018-07-17T02:17:07.752Z,0.00
2018-07-17T02:18:07.748Z,0.00
2018-07-17T02:19:07.752Z,0.00
2018-07-17T02:20:07.748Z,0.00
2018-07-17T02:21:07.748Z,0.00
2018-07-17T02:22:07.750Z,0.00
2018-07-17T02:23:07.750Z,0.00
2018-07-17T02:24:07.751Z,0.00
2018-07-17T02:25:07.750Z,0.00
2018-07-17T02:26:07.744Z,0.00
2018-07-17T02:27:07.745Z,0.00
2018-07-17T02:28:07.749Z,0.00
2018-07-17T02:29:07.746Z,0.00
2018-07-17T02:30:07.742Z,0.00
2018-07-17T02:31:07.742Z,0.00
2018-07-17T02:32:07.741Z,0.00
2018-07-17T02:33:07.741Z,0.00
2018-07-17T02:34:07.746Z,0.00
2018-07-17T02:35:07.744Z,0.00
2018-07-17T02:36:07.743Z,0.00
2018-07-17T02:37:07.742Z,0.00
2018-07-17T02:38:07.745Z,0.00
2018-07-17T02:39:07.736Z,0.00
2018-07-17T02:40:07.735Z,0.00
2018-07-17T02:41:07.735Z,0.00
2018-07-17T02:42:07.794Z,0.00
2018-07-17T02:43:07.740Z,0.00
2018-07-17T02:44:07.735Z,0.00
2018-07-17T02:45:07.736Z,0.00
2018-07-17T02:46:07.737Z,0.00
2018-07-17T02:47:07.737Z,0.00
2018-07-17T02:48:07.736Z,0.00
2018-07-17T02:49:07.736Z,0.00
2018-07-17T02:50:07.732Z,0.00
2018-07-17T02:51:07.731Z,0.00
2018-07-17T02:52:07.730Z,0.00
2018-07-17T02:53:07.730Z,0.00
2018-07-17T02:54:07.732Z,0.00
2018-07-17T02:55:07.733Z,0.00
2018-07-17T02:56:07.737Z,0.00
2018-07-17T02:57:07.734Z,4.00
2018-07-17T02:58:07.728Z,4.00
2018-07-17T02:59:07.726Z,4.00
2018-07-17T03:00:07.730Z,0.00
2018-07-17T03:01:07.729Z,4.00
2018-07-17T03:02:07.724Z,4.00
2018-07-17T03:03:07.723Z,4.00
2018-07-17T03:04:07.723Z,8.00
2018-07-17T03:05:07.721Z,4.00
2018-07-17T03:06:07.728Z,8.00
2018-07-17T03:07:07.790Z,4.00
2018-07-17T03:08:07.725Z,8.00
2018-07-17T03:09:07.724Z,8.00
2018-07-17T03:10:07.718Z,12.00
2018-07-17T03:11:07.718Z,12.00
2018-07-17T03:12:07.718Z,12.00
2018-07-17T03:13:07.717Z,12.00
2018-07-17T03:14:07.721Z,12.00
2018-07-17T03:15:07.720Z,16.00
2018-07-17T03:16:07.717Z,16.00
2018-07-17T03:17:07.714Z,24.00
2018-07-17T03:18:07.724Z,24.00
2018-07-17T03:19:07.721Z,28.00
2018-07-17T03:20:07.716Z,28.00
2018-07-17T03:21:07.716Z,32.00
2018-07-17T03:22:07.710Z,36.00
2018-07-17T03:23:07.710Z,40.00
2018-07-17T03:24:07.709Z,44.00
2018-07-17T03:25:07.709Z,48.00
2018-07-17T03:26:07.712Z,52.00
2018-07-17T03:27:07.711Z,60.00
2018-07-17T03:28:07.717Z,64.00
2018-07-17T03:29:07.710Z,72.00
2018-07-17T03:30:07.706Z,80.00
2018-07-17T03:31:07.705Z,84.00
2018-07-17T03:32:07.710Z,92.00
2018-07-17T03:33:07.709Z,100.00
2018-07-17T03:34:07.704Z,108.00
2018-07-17T03:35:07.704Z,116.00
2018-07-17T03:36:07.703Z,120.00
2018-07-17T03:37:07.701Z,128.00
2018-07-17T03:38:07.706Z,136.00
2018-07-17T03:39:07.705Z,144.00
2018-07-17T03:40:07.706Z,156.00
2018-07-17T03:41:07.703Z,168.00
2018-07-17T03:42:07.698Z,180.00
2018-07-17T03:43:07.698Z,192.00
2018-07-17T03:44:07.698Z,212.00
2018-07-17T03:45:07.697Z,228.00
2018-07-17T03:46:07.706Z,244.00
2018-07-17T03:47:07.701Z,268.00
2018-07-17T03:48:07.696Z,288.00
2018-07-17T03:49:07.699Z,320.00
2018-07-17T03:50:07.698Z,352.00
2018-07-17T03:51:07.699Z,376.00
2018-07-17T03:52:07.699Z,400.00
2018-07-17T03:53:07.697Z,420.00
2018-07-17T03:54:07.692Z,448.00
2018-07-17T03:55:07.692Z,472.00
2018-07-17T03:56:07.691Z,500.00
2018-07-17T03:57:07.693Z,524.00
2018-07-17T03:58:07.693Z,556.00
2018-07-17T03:59:07.693Z,576.00
2018-07-17T04:00:07.693Z,604.00
2018-07-17T04:01:07.692Z,636.00
2018-07-17T04:02:07.686Z,668.00
2018-07-17T04:03:07.686Z,708.00
2018-07-17T04:04:07.694Z,744.00
2018-07-17T04:05:07.689Z,788.00
2018-07-17T04:06:07.685Z,832.00
2018-07-17T04:07:07.683Z,876.00
2018-07-17T04:08:07.683Z,916.00
2018-07-17T04:09:07.682Z,964.00
2018-07-17T04:10:07.688Z,1012.00
2018-07-17T04:11:07.686Z,1064.00
2018-07-17T04:12:07.686Z,1116.00
2018-07-17T04:13:07.685Z,1164.00
2018-07-17T04:14:07.678Z,1212.00
2018-07-17T04:15:07.677Z,1260.00
2018-07-17T04:16:07.677Z,1308.00
2018-07-17T04:17:07.675Z,1360.00
2018-07-17T04:18:07.679Z,1416.00
2018-07-17T04:19:07.678Z,1480.00
2018-07-17T04:20:07.677Z,1544.00
2018-07-17T04:21:07.673Z,1608.00
2018-07-17T04:22:07.677Z,1672.00
2018-07-17T04:23:07.676Z,1732.00
2018-07-17T04:24:07.677Z,1792.00
2018-07-17T04:25:07.676Z,1852.00
2018-07-17T04:26:07.669Z,1908.00
2018-07-17T04:27:07.669Z,1960.00
2018-07-17T04:28:07.669Z,2016.00
2018-07-17T04:29:07.667Z,2076.00
2018-07-17T04:30:07.671Z,2140.00
2018-07-17T04:31:07.671Z,2208.00
2018-07-17T04:32:07.670Z,2260.00
2018-07-17T04:33:07.669Z,2308.00
2018-07-17T04:34:07.664Z,2356.00
2018-07-17T04:35:07.663Z,2404.00
2018-07-17T04:36:07.670Z,2444.00
2018-07-17T04:37:07.669Z,2464.00
2018-07-17T04:38:07.665Z,2492.00
2018-07-17T04:39:07.662Z,2528.00
2018-07-17T04:40:07.663Z,2576.00
2018-07-17T04:41:07.661Z,2628.00
2018-07-17T04:42:07.666Z,2684.00
2018-07-17T04:43:07.668Z,2744.00
2018-07-17T04:44:07.739Z,2800.00
2018-07-17T04:45:07.664Z,2860.00
2018-07-17T04:46:07.658Z,2920.00
2018-07-17T04:47:07.658Z,2972.00
2018-07-17T04:48:07.659Z,3032.00
2018-07-17T04:49:07.659Z,3088.00
2018-07-17T04:50:07.663Z,3152.00
2018-07-17T04:51:07.664Z,3224.00
2018-07-17T04:52:07.658Z,3300.00
2018-07-17T04:53:07.657Z,3396.00
2018-07-17T04:54:07.662Z,3496.00
2018-07-17T04:55:07.665Z,3616.00
2018-07-17T04:56:07.661Z,4280.00
2018-07-17T04:57:07.659Z,5800.00
2018-07-17T04:58:07.658Z,6100.00
2018-07-17T04:59:07.656Z,6256.00
2018-07-17T05:00:07.655Z,6604.00
2018-07-17T05:01:07.654Z,7004.00
2018-07-17T05:02:07.660Z,7512.00
2018-07-17T05:03:07.659Z,7988.00
2018-07-17T05:04:07.661Z,8552.00
2018-07-17T05:05:07.659Z,9044.00
2018-07-17T05:06:07.657Z,9464.00
2018-07-17T05:07:07.656Z,9620.00
2018-07-17T05:08:07.662Z,9720.00
2018-07-17T05:09:07.662Z,9840.00
2018-07-17T05:10:07.660Z,10096.00
2018-07-17T05:11:07.663Z,10324.00
2018-07-17T05:12:07.661Z,10476.00
2018-07-17T05:13:07.661Z,9904.00
2018-07-17T05:14:07.668Z,10252.00
2018-07-17T05:15:07.670Z,11032.00
2018-07-17T05:16:07.671Z,11184.00
2018-07-17T05:17:07.673Z,11184.00
2018-07-17T05:18:07.671Z,11548.00
2018-07-17T05:19:07.674Z,11860.00
2018-07-17T05:20:07.692Z,11860.00
2018-07-17T05:21:07.679Z,11204.00
2018-07-17T05:22:07.688Z,10396.00
2018-07-17T05:23:07.691Z,12316.00
2018-07-17T05:24:07.689Z,12828.00
2018-07-17T05:25:07.692Z,12624.00
2018-07-17T05:26:07.704Z,12188.00
2018-07-17T05:27:07.704Z,11912.00
2018-07-17T05:28:07.708Z,11992.00
2018-07-17T05:29:07.711Z,12508.00
2018-07-17T05:30:07.711Z,12936.00
2018-07-17T05:31:07.714Z,13140.00
2018-07-17T05:32:07.720Z,13488.00
2018-07-17T05:33:07.724Z,14592.00
2018-07-17T05:34:07.732Z,14688.00
2018-07-17T05:35:07.794Z,15232.00
2018-07-17T05:36:07.743Z,16352.00
2018-07-17T05:37:07.746Z,16672.00
2018-07-17T05:38:07.756Z,16896.00
2018-07-17T05:39:07.752Z,17152.00
2018-07-17T05:40:07.762Z,17152.00
2018-07-17T05:41:07.766Z,17088.00
2018-07-17T05:42:07.767Z,16832.00
2018-07-17T05:43:07.772Z,17184.00
2018-07-17T05:44:07.777Z,17568.00
2018-07-17T05:45:07.781Z,17824.00
2018-07-17T05:46:07.793Z,17792.00
2018-07-17T05:47:07.799Z,16928.00
2018-07-17T05:48:07.806Z,16416.00
2018-07-17T05:49:07.811Z,16448.00
2018-07-17T05:50:07.812Z,17024.00
2018-07-17T05:51:07.819Z,17952.00
2018-07-17T05:52:07.827Z,18592.00
2018-07-17T05:53:07.832Z,19104.00
2018-07-17T05:54:07.848Z,19552.00
2018-07-17T05:55:07.849Z,19840.00
2018-07-17T05:56:07.852Z,20192.00
2018-07-17T05:57:07.861Z,20352.00
2018-07-17T05:58:07.870Z,20736.00
2018-07-17T05:59:07.879Z,20832.00
2018-07-17T06:00:07.887Z,20864.00
2018-07-17T06:01:07.897Z,21056.00
2018-07-17T06:02:07.896Z,21376.00
2018-07-17T06:03:07.904Z,21760.00
2018-07-17T06:04:07.916Z,21984.00
2018-07-17T06:05:07.919Z,22080.00
2018-07-17T06:06:07.933Z,22400.00
2018-07-17T06:07:07.941Z,22816.00
2018-07-17T06:08:07.950Z,23136.00
2018-07-17T06:09:07.959Z,23552.00
2018-07-17T06:10:07.964Z,23680.00
2018-07-17T06:11:07.971Z,23808.00
2018-07-17T06:12:07.985Z,23936.00
2018-07-17T06:13:07.993Z,24000.00
2018-07-17T06:14:07.999Z,24064.00
2018-07-17T06:15:08.008Z,24384.00
2018-07-17T06:16:08.018Z,24672.00
2018-07-17T06:17:08.027Z,25024.00
2018-07-17T06:18:08.043Z,25120.00
2018-07-17T06:19:08.208Z,25376.00
2018-07-17T06:20:08.062Z,25728.00
2018-07-17T06:21:08.073Z,26112.00
2018-07-17T06:22:08.194Z,26240.00
2018-07-17T06:23:08.090Z,26368.00
2018-07-17T06:24:08.099Z,26688.00
2018-07-17T06:25:08.281Z,27616.00
2018-07-17T06:26:08.125Z,27840.00
2018-07-17T06:27:08.136Z,28032.00
2018-07-17T06:28:08.144Z,29312.00
2018-07-17T06:29:08.154Z,29856.00
2018-07-17T06:30:08.171Z,29760.00
2018-07-17T06:31:08.181Z,29248.00
2018-07-17T06:32:08.196Z,27808.00
2018-07-17T06:33:08.336Z,21344.00
2018-07-17T06:34:08.260Z,26720.00
2018-07-17T06:35:08.228Z,24576.00
2018-07-17T06:36:08.237Z,13168.00
2018-07-17T06:37:08.250Z,12844.00
2018-07-17T06:38:08.267Z,12552.00
2018-07-17T06:39:08.282Z,12428.00
2018-07-17T06:40:08.290Z,12452.00
2018-07-17T06:41:08.302Z,12552.00
2018-07-17T06:42:08.310Z,12820.00
2018-07-17T06:43:08.322Z,13088.00
2018-07-17T06:44:08.338Z,13072.00
2018-07-17T06:45:08.349Z,13536.00
2018-07-17T06:46:08.359Z,28096.00
2018-07-17T06:47:08.367Z,27680.00
2018-07-17T06:48:08.379Z,26720.00
2018-07-17T06:49:08.394Z,22208.00
2018-07-17T06:50:08.449Z,10484.00
2018-07-17T06:51:08.417Z,9516.00
2018-07-17T06:52:08.429Z,8728.00
2018-07-17T06:53:08.437Z,8084.00
2018-07-17T06:54:08.445Z,7616.00
2018-07-17T06:55:08.458Z,7180.00
2018-07-17T06:56:08.467Z,6764.00
2018-07-17T06:57:08.475Z,6388.00
2018-07-17T06:58:08.490Z,6036.00
2018-07-17T06:59:08.502Z,5768.00
2018-07-17T07:00:08.506Z,5612.00
2018-07-17T07:01:08.515Z,5456.00
2018-07-17T07:02:08.529Z,5280.00
2018-07-17T07:03:08.539Z,5108.00
2018-07-17T07:04:08.549Z,4936.00
2018-07-17T07:05:08.602Z,4824.00
2018-07-17T07:06:08.557Z,4740.00
2018-07-17T07:07:08.569Z,4664.00
2018-07-17T07:08:08.575Z,4632.00
2018-07-17T07:09:08.582Z,4652.00
2018-07-17T07:10:08.594Z,4740.00
2018-07-17T07:11:08.676Z,4832.00
2018-07-17T07:12:08.610Z,4976.00
2018-07-17T07:13:08.616Z,5100.00
2018-07-17T07:14:08.619Z,5188.00
2018-07-17T07:15:08.625Z,5348.00
2018-07-17T07:16:08.643Z,5576.00
2018-07-17T07:17:08.642Z,5804.00
2018-07-17T07:18:08.645Z,6096.00
2018-07-17T07:19:08.652Z,6356.00
2018-07-17T07:20:08.657Z,6500.00
2018-07-17T07:21:08.664Z,6600.00
2018-07-17T07:22:08.674Z,6696.00
2018-07-17T07:23:08.681Z,6920.00
2018-07-17T07:24:08.687Z,7208.00
2018-07-17T07:25:08.692Z,7588.00
2018-07-17T07:26:08.759Z,8128.00
2018-07-17T07:27:08.698Z,8752.00
2018-07-17T07:28:08.704Z,9244.00
2018-07-17T07:29:08.708Z,9588.00
2018-07-17T07:30:08.721Z,9864.00
2018-07-17T07:31:08.727Z,9852.00
2018-07-17T07:32:08.729Z,8504.00
2018-07-17T07:33:08.730Z,8468.00
2018-07-17T07:34:08.740Z,8320.00
2018-07-17T07:35:08.747Z,8320.00
2018-07-17T07:36:08.752Z,8348.00
2018-07-17T07:37:08.803Z,8320.00
2018-07-17T07:38:08.758Z,8268.00
2018-07-17T07:39:08.762Z,8440.00
2018-07-17T07:40:08.769Z,8840.00
2018-07-17T07:41:08.773Z,9236.00
2018-07-17T07:42:08.784Z,10008.00
2018-07-17T07:43:08.791Z,11228.00
2018-07-17T07:44:08.794Z,12272.00
2018-07-17T07:45:08.799Z,12912.00
2018-07-17T07:46:08.799Z,16064.00
2018-07-17T07:47:08.805Z,15364.00
2018-07-17T07:48:08.818Z,13916.00
2018-07-17T07:49:08.824Z,13424.00
2018-07-17T07:50:08.824Z,13168.00
2018-07-17T07:51:08.825Z,13256.00
2018-07-17T07:52:08.834Z,13492.00
2018-07-17T07:53:08.835Z,13520.00
2018-07-17T07:54:08.846Z,13580.00
2018-07-17T07:55:08.855Z,14252.00
2018-07-17T07:56:08.860Z,16608.00
2018-07-17T07:57:08.864Z,13464.00
2018-07-17T07:58:08.868Z,13372.00
2018-07-17T07:59:08.879Z,12692.00
2018-07-17T08:00:08.876Z,12476.00
2018-07-17T08:01:08.883Z,12752.00
2018-07-17T08:02:08.893Z,12940.00
2018-07-17T08:03:08.898Z,13076.00
2018-07-17T08:04:08.901Z,14164.00
2018-07-17T08:05:08.905Z,15660.00
2018-07-17T08:06:08.920Z,17376.00
2018-07-17T08:07:08.922Z,20288.00
2018-07-17T08:08:08.930Z,23520.00
2018-07-17T08:09:08.935Z,32736.00
2018-07-17T08:10:08.936Z,19712.00
2018-07-17T08:11:08.943Z,33056.00
2018-07-17T08:12:09.019Z,44896.00
2018-07-17T08:13:08.955Z,47808.00
2018-07-17T08:14:08.968Z,33984.00
2018-07-17T08:15:08.974Z,38400.00
2018-07-17T08:16:08.982Z,50720.00
2018-07-17T08:17:08.987Z,51104.00
2018-07-17T08:18:08.992Z,50720.00
2018-07-17T08:19:09.003Z,48608.00
2018-07-17T08:20:09.016Z,47968.00
2018-07-17T08:21:09.023Z,48000.00
2018-07-17T08:22:09.033Z,48320.00
2018-07-17T08:23:09.038Z,48128.00
2018-07-17T08:24:09.051Z,48992.00
2018-07-17T08:25:09.063Z,47520.00
2018-07-17T08:26:09.078Z,48320.00
2018-07-17T08:27:09.093Z,49120.00
2018-07-17T08:28:09.103Z,48896.00
2018-07-17T08:29:09.116Z,43776.00
2018-07-17T08:30:09.124Z,50464.00
2018-07-17T08:31:09.139Z,49600.00
2018-07-17T08:32:09.153Z,28224.00
2018-07-17T08:33:09.166Z,46208.00
2018-07-17T08:34:09.186Z,48352.00
2018-07-17T08:35:09.204Z,49728.00
2018-07-17T08:36:09.211Z,51648.00
2018-07-17T08:37:09.226Z,49344.00
2018-07-17T08:38:09.250Z,44736.00
2018-07-17T08:39:09.265Z,44256.00
2018-07-17T08:40:09.278Z,45312.00
2018-07-17T08:41:09.295Z,48256.00
2018-07-17T08:42:09.311Z,47104.00
2018-07-17T08:43:09.380Z,48800.00
2018-07-17T08:44:09.343Z,44128.00
2018-07-17T08:45:09.360Z,48192.00
2018-07-17T08:46:09.380Z,48960.00
2018-07-17T08:47:09.397Z,46464.00
2018-07-17T08:48:09.414Z,45056.00
2018-07-17T08:49:09.447Z,46944.00
2018-07-17T08:50:09.444Z,47296.00
2018-07-17T08:51:09.464Z,42048.00
2018-07-17T08:52:09.485Z,50464.00
2018-07-17T08:53:09.502Z,50112.00
2018-07-17T08:54:09.517Z,47616.00
2018-07-17T08:55:09.536Z,47712.00
2018-07-17T08:56:09.553Z,45632.00
2018-07-17T08:57:09.572Z,43744.00
2018-07-17T08:58:09.597Z,44256.00
2018-07-17T08:59:09.615Z,43168.00
2018-07-17T09:00:09.636Z,43648.00
2018-07-17T09:01:09.652Z,42432.00
2018-07-17T09:02:09.668Z,32320.00
2018-07-17T09:03:09.686Z,38880.00
2018-07-17T09:04:09.709Z,41504.00
2018-07-17T09:05:09.725Z,24288.00
2018-07-17T09:06:09.750Z,33056.00
2018-07-17T09:07:09.770Z,23232.00
2018-07-17T09:08:09.785Z,26048.00
2018-07-17T09:09:09.802Z,22592.00
2018-07-17T09:10:09.829Z,24160.00
2018-07-17T09:11:09.851Z,36704.00
2018-07-17T09:12:09.869Z,26528.00
2018-07-17T09:13:09.959Z,27456.00
2018-07-17T09:14:09.899Z,24320.00
2018-07-17T09:15:09.914Z,27232.00
2018-07-17T09:16:09.934Z,23264.00
2018-07-17T09:17:09.951Z,22592.00
2018-07-17T09:18:09.970Z,26432.00
2018-07-17T09:19:09.990Z,28992.00
2018-07-17T09:20:10.008Z,36448.00
2018-07-17T09:21:10.024Z,43072.00
2018-07-17T09:22:10.035Z,40384.00
2018-07-17T09:23:10.052Z,45824.00
2018-07-17T09:24:10.072Z,34176.00
2018-07-17T09:25:10.093Z,31200.00
2018-07-17T09:26:10.099Z,33088.00
2018-07-17T09:27:10.128Z,36256.00
2018-07-17T09:28:10.154Z,37536.00
2018-07-17T09:29:10.152Z,50688.00
2018-07-17T09:30:10.168Z,50240.00
2018-07-17T09:31:10.186Z,48800.00
2018-07-17T09:32:10.200Z,49952.00
2018-07-17T09:33:10.217Z,39072.00
2018-07-17T09:34:10.229Z,40576.00
2018-07-17T09:35:10.248Z,42880.00
2018-07-17T09:36:10.263Z,40832.00
2018-07-17T09:37:10.279Z,43232.00
2018-07-17T09:38:10.301Z,48768.00
2018-07-17T09:39:10.319Z,48928.00
2018-07-17T09:40:10.332Z,43168.00
2018-07-17T09:41:10.347Z,33344.00
2018-07-17T09:42:10.371Z,27520.00
2018-07-17T09:43:10.389Z,47264.00
2018-07-17T09:44:10.415Z,45248.00
2018-07-17T09:45:10.423Z,45152.00
2018-07-17T09:46:10.437Z,44768.00
2018-07-17T09:47:10.456Z,44800.00
2018-07-17T09:48:10.474Z,44224.00
2018-07-17T09:49:10.494Z,44576.00
2018-07-17T09:50:10.514Z,47552.00
2018-07-17T09:51:10.534Z,54720.00
2018-07-17T09:52:10.558Z,70688.00
2018-07-17T09:53:10.572Z,80928.00
2018-07-17T09:54:10.601Z,80352.00
2018-07-17T09:55:10.606Z,80320.00
2018-07-17T09:56:10.633Z,83744.00
2018-07-17T09:57:10.652Z,85408.00
2018-07-17T09:58:10.666Z,80704.00
2018-07-17T09:59:10.686Z,81024.00
2018-07-17T10:00:10.707Z,84480.00
2018-07-17T10:01:10.728Z,83616.00
2018-07-17T10:02:10.753Z,80896.00
2018-07-17T10:03:10.774Z,81056.00
2018-07-17T10:04:10.796Z,80960.00
2018-07-17T10:05:10.817Z,77408.00
2018-07-17T10:06:10.833Z,75808.00
2018-07-17T10:07:10.877Z,79072.00
2018-07-17T10:08:10.876Z,81792.00
2018-07-17T10:09:10.897Z,81632.00
2018-07-17T10:10:10.923Z,80736.00
2018-07-17T10:11:10.945Z,78944.00
2018-07-17T10:12:10.964Z,81568.00
2018-07-17T10:13:10.984Z,83456.00
2018-07-17T10:14:11.012Z,83648.00
2018-07-17T10:15:11.035Z,82176.00
2018-07-17T10:16:11.056Z,79968.00
2018-07-17T10:17:11.079Z,79232.00
2018-07-17T10:18:11.097Z,75712.00
2018-07-17T10:19:11.118Z,76800.00
2018-07-17T10:20:11.166Z,76160.00
2018-07-17T10:21:11.162Z,76544.00
2018-07-17T10:22:11.191Z,76128.00
2018-07-17T10:23:11.214Z,76128.00
2018-07-17T10:24:11.239Z,75776.00
2018-07-17T10:25:11.260Z,72800.00
2018-07-17T10:26:11.317Z,73152.00
2018-07-17T10:27:11.302Z,72928.00
2018-07-17T10:28:11.326Z,72192.00
2018-07-17T10:29:11.347Z,67520.00
2018-07-17T10:30:11.366Z,69312.00
2018-07-17T10:31:11.388Z,66464.00
2018-07-17T10:32:11.438Z,65760.00
2018-07-17T10:33:11.442Z,65472.00
2018-07-17T10:34:11.460Z,65088.00
2018-07-17T10:35:11.484Z,64448.00
2018-07-17T10:36:11.512Z,63968.00
2018-07-17T10:37:11.528Z,64576.00
2018-07-17T10:38:11.547Z,65248.00
2018-07-17T10:39:11.568Z,65056.00
2018-07-17T10:40:11.591Z,63072.00
2018-07-17T10:41:11.613Z,63104.00
2018-07-17T10:42:11.638Z,63968.00
2018-07-17T10:43:11.665Z,62304.00
2018-07-17T10:44:11.680Z,62880.00
2018-07-17T10:45:11.707Z,64608.00
2018-07-17T10:46:11.729Z,62272.00
2018-07-17T10:47:11.752Z,60800.00
2018-07-17T10:48:11.775Z,58112.00
2018-07-17T10:49:11.797Z,59808.00
2018-07-17T10:50:11.814Z,58176.00
2018-07-17T10:51:11.839Z,61440.00
2018-07-17T10:52:11.861Z,67264.00
2018-07-17T10:53:11.882Z,67424.00
2018-07-17T10:54:11.909Z,65632.00
2018-07-17T10:55:11.935Z,63584.00
2018-07-17T10:56:11.955Z,67200.00
2018-07-17T10:57:11.977Z,66176.00
2018-07-17T10:58:11.995Z,65120.00
2018-07-17T10:59:12.018Z,65152.00
2018-07-17T11:00:12.046Z,66080.00
2018-07-17T11:01:12.067Z,69632.00
2018-07-17T11:02:12.084Z,68768.00
2018-07-17T11:03:12.111Z,68512.00
2018-07-17T11:04:12.129Z,69504.00
2018-07-17T11:05:12.151Z,70912.00
2018-07-17T11:06:12.177Z,70304.00
2018-07-17T11:07:12.201Z,75520.00
2018-07-17T11:08:12.224Z,80864.00
2018-07-17T11:09:12.244Z,80896.00
2018-07-17T11:10:12.262Z,79008.00
2018-07-17T11:11:12.282Z,81440.00
2018-07-17T11:12:12.304Z,86784.00
2018-07-17T11:13:12.325Z,86944.00
2018-07-17T11:14:12.353Z,85824.00
2018-07-17T11:15:12.375Z,86944.00
2018-07-17T11:16:12.391Z,88256.00
2018-07-17T11:17:12.417Z,89536.00
2018-07-17T11:18:12.442Z,90592.00
2018-07-17T11:19:12.462Z,92224.00
2018-07-17T11:20:12.485Z,95104.00
2018-07-17T11:21:12.505Z,92352.00
2018-07-17T11:22:12.521Z,91712.00
2018-07-17T11:23:12.544Z,92000.00
2018-07-17T11:24:12.565Z,92448.00
2018-07-17T11:25:12.585Z,96512.00
2018-07-17T11:26:12.612Z,92896.00
2018-07-17T11:27:12.639Z,53760.00
2018-07-17T11:28:12.657Z,11592.00
2018-07-17T11:29:12.675Z,8376.00
2018-07-17T11:30:12.693Z,7816.00
2018-07-17T11:31:12.711Z,7740.00
2018-07-17T11:32:12.735Z,7588.00
2018-07-17T11:33:12.752Z,7448.00
2018-07-17T11:34:12.766Z,7148.00
2018-07-17T11:35:12.784Z,6992.00
2018-07-17T11:36:12.802Z,7012.00
2018-07-17T11:37:12.819Z,7224.00
2018-07-17T11:38:12.848Z,7148.00
2018-07-17T11:39:12.858Z,7232.00
2018-07-17T11:40:12.875Z,7232.00
2018-07-17T11:41:12.892Z,7240.00
2018-07-17T11:42:12.903Z,7184.00
2018-07-17T11:43:12.916Z,7048.00
2018-07-17T11:44:12.932Z,7112.00
2018-07-17T11:45:12.947Z,7136.00
2018-07-17T11:46:12.964Z,7132.00
2018-07-17T11:47:12.985Z,7148.00
2018-07-17T11:48:12.992Z,7220.00
2018-07-17T11:49:13.010Z,7424.00
2018-07-17T11:50:13.018Z,7800.00
2018-07-17T11:51:13.032Z,7616.00
2018-07-17T11:52:13.047Z,7724.00
2018-07-17T11:53:13.121Z,7836.00
2018-07-17T11:54:13.066Z,7820.00
2018-07-17T11:55:13.080Z,7656.00
2018-07-17T11:56:13.092Z,7328.00
2018-07-17T11:57:13.102Z,7200.00
2018-07-17T11:58:13.120Z,7132.00
2018-07-17T11:59:13.275Z,7380.00
2018-07-17T12:00:13.145Z,7792.00
2018-07-17T12:01:13.154Z,7816.00
2018-07-17T12:02:13.161Z,6544.00
2018-07-17T12:03:13.178Z,5940.00
2018-07-17T12:04:13.187Z,5536.00
2018-07-17T12:05:13.197Z,5308.00
2018-07-17T12:06:13.204Z,5664.00
2018-07-17T12:07:13.214Z,7520.00
2018-07-17T12:08:13.224Z,8588.00
2018-07-17T12:09:13.236Z,8648.00
2018-07-17T12:10:13.250Z,8528.00
2018-07-17T12:11:13.263Z,8256.00
2018-07-17T12:12:13.271Z,8056.00
2018-07-17T12:13:13.278Z,7328.00
2018-07-17T12:14:13.284Z,8032.00
2018-07-17T12:15:13.293Z,8220.00